createdAt,value
2022-12-18T17:27:29.311Z,25.82
2022-12-18T17:28:02.616Z,23.69
2022-12-18T17:28:36.356Z,22.77
2022-12-18T17:29:09.902Z,22.50
2022-12-18T17:29:46.814Z,22.40
2022-12-18T17:30:21.488Z,22.59
2022-12-18T17:30:56.559Z,22.68
2022-12-18T17:31:31.233Z,22.76
2022-12-18T17:32:04.899Z,22.82
2022-12-18T17:32:38.206Z,22.87
2022-12-18T17:33:11.521Z,22.91
2022-12-18T17:33:44.937Z,22.93
2022-12-18T17:34:18.242Z,22.89
2022-12-18T17:34:51.537Z,22.88
2022-12-18T17:35:24.863Z,22.88
2022-12-18T17:36:00.749Z,22.85
2022-12-18T17:36:34.254Z,22.85
2022-12-18T17:37:07.555Z,22.86
2022-12-18T17:37:43.678Z,22.84
2022-12-18T17:38:18.043Z,22.76
2022-12-18T17:38:55.542Z,22.68
2022-12-18T17:39:29.323Z,22.63
2022-12-18T17:40:02.879Z,22.59
2022-12-18T17:40:36.653Z,22.55
2022-12-18T17:41:12.251Z,22.52
2022-12-18T17:41:45.636Z,22.51
2022-12-18T17:42:18.954Z,22.53
2022-12-18T17:42:54.401Z,22.56
2022-12-18T17:43:27.697Z,22.58
2022-12-18T17:44:03.347Z,22.58
2022-12-18T17:44:36.763Z,22.59
2022-12-18T17:45:10.513Z,22.58
2022-12-18T17:45:44.258Z,22.57
2022-12-18T17:46:17.624Z,22.57
2022-12-18T17:46:51.105Z,22.56
2022-12-18T17:47:24.504Z,22.57
2022-12-18T17:47:59.987Z,22.60
2022-12-18T17:48:34.320Z,22.70
2022-12-18T17:49:07.631Z,23.12
2022-12-18T17:49:41.134Z,23.61
2022-12-18T17:50:14.493Z,23.70
2022-12-18T17:50:47.855Z,23.70
2022-12-18T17:51:21.194Z,23.75
2022-12-18T17:51:54.526Z,24.13
2022-12-18T17:52:27.836Z,24.52
2022-12-18T17:53:01.602Z,24.68
2022-12-18T17:53:35.147Z,24.81
2022-12-18T17:54:08.443Z,24.88
2022-12-18T17:54:42.560Z,24.89
2022-12-18T17:55:15.911Z,24.93
2022-12-18T17:55:56.292Z,24.95
2022-12-18T17:56:29.984Z,24.94
2022-12-18T17:57:04.123Z,24.84
2022-12-18T17:57:37.643Z,24.63
2022-12-18T17:58:11.017Z,24.49
2022-12-18T17:58:45.037Z,24.44
2022-12-18T18:00:19.193Z,28.64
2022-12-18T18:00:53.018Z,25.43
2022-12-18T18:01:27.600Z,24.00
2022-12-18T18:02:01.162Z,23.44
2022-12-18T18:02:34.810Z,23.12
2022-12-18T18:03:09.592Z,23.25
2022-12-18T18:03:44.154Z,23.54
2022-12-18T18:04:18.101Z,23.68
2022-12-18T18:04:51.483Z,23.73
2022-12-18T18:05:24.789Z,23.76
2022-12-18T18:06:00.022Z,23.72
2022-12-18T18:06:33.971Z,23.71
2022-12-18T18:07:10.077Z,23.72
2022-12-18T18:07:43.418Z,23.74
2022-12-18T18:08:16.749Z,23.68
2022-12-18T18:08:50.117Z,23.51
2022-12-18T18:09:23.489Z,23.46
2022-12-18T18:09:56.818Z,23.46
2022-12-18T18:10:30.116Z,23.43
2022-12-18T18:11:28.777Z,23.40
2022-12-18T18:12:20.353Z,23.42
2022-12-18T18:13:11.922Z,23.36
2022-12-18T18:14:01.247Z,23.18
2022-12-18T18:14:34.856Z,23.07
2022-12-18T18:15:08.710Z,23.02
2022-12-18T18:15:42.723Z,22.98
2022-12-18T18:16:16.087Z,22.95
2022-12-18T18:16:52.531Z,22.93
2022-12-18T18:17:25.871Z,22.90
2022-12-18T18:17:59.187Z,22.88
2022-12-18T18:30:19.620Z,21.10
2022-12-18T18:30:53.302Z,21.11
2022-12-18T18:31:28.518Z,21.12
2022-12-18T18:32:02.396Z,21.12
2022-12-18T18:32:40.135Z,21.13
2022-12-18T18:33:14.934Z,21.13
2022-12-18T18:33:51.441Z,21.13
2022-12-18T18:34:27.460Z,21.12
2022-12-18T18:35:01.022Z,22.53
2022-12-18T18:46:26.512Z,21.01
2022-12-18T18:47:00.354Z,21.01
2022-12-18T18:47:35.281Z,21.00
2022-12-18T18:48:08.855Z,21.00
2022-12-18T18:48:43.749Z,20.99
2022-12-18T18:49:17.568Z,21.00
2022-12-18T18:49:51.107Z,21.00
2022-12-18T18:50:24.647Z,21.00
2022-12-18T18:51:21.804Z,21.01
2022-12-18T18:53:19.905Z,26.07
2022-12-18T18:53:54.333Z,24.56
2022-12-18T18:54:28.212Z,23.16
2022-12-18T18:55:13.271Z,22.26
2022-12-18T18:55:55.152Z,21.96
2022-12-18T18:57:30.966Z,22.09
2022-12-18T18:59:02.290Z,26.83
2022-12-18T18:59:35.597Z,25.78
2022-12-18T19:00:10.344Z,24.27
2022-12-18T19:00:44.065Z,23.56
2022-12-18T19:01:19.949Z,23.56
2022-12-18T19:01:53.434Z,23.48
2022-12-18T19:02:26.972Z,23.13
2022-12-18T19:03:00.775Z,22.92
2022-12-18T19:03:35.160Z,22.76
2022-12-18T19:04:08.480Z,22.58
2022-12-18T19:04:45.731Z,22.49
2022-12-18T19:05:20.138Z,22.51
2022-12-18T19:05:56.382Z,22.57
2022-12-18T19:06:30.029Z,22.61
2022-12-18T19:07:04.621Z,22.66
2022-12-18T19:07:37.947Z,22.70
2022-12-18T19:08:11.259Z,22.75
2022-12-18T19:08:46.896Z,22.78
2022-12-18T19:09:20.193Z,22.87
2022-12-18T19:09:54.629Z,22.98
2022-12-18T19:10:27.941Z,23.02
2022-12-18T19:11:02.950Z,23.05
2022-12-18T19:13:29.926Z,26.31
2022-12-18T19:14:06.902Z,24.25
2022-12-18T19:14:40.261Z,23.98
2022-12-18T19:15:14.138Z,24.08
2022-12-18T19:15:47.850Z,24.31
2022-12-18T19:16:21.321Z,24.31
2022-12-18T19:16:56.926Z,24.18
2022-12-18T19:17:31.627Z,24.09
2022-12-18T19:18:05.360Z,24.09
2022-12-18T19:18:39.105Z,24.12
2022-12-18T19:19:13.548Z,24.13
2022-12-18T19:19:47.038Z,24.13
2022-12-18T19:20:20.368Z,24.12
2022-12-18T19:21:01.393Z,24.06
2022-12-18T19:21:35.774Z,23.98
2022-12-18T19:22:10.071Z,23.95
2022-12-18T19:22:43.384Z,23.93
2022-12-18T19:23:19.362Z,23.88
2022-12-18T19:23:52.676Z,23.80
2022-12-18T19:24:48.456Z,21.28
2022-12-18T19:25:21.759Z,21.28
2022-12-18T19:26:10.268Z,21.28
2022-12-18T19:26:48.822Z,21.28
2022-12-18T19:27:22.314Z,21.28
2022-12-18T19:27:55.827Z,21.27
2022-12-18T19:28:29.741Z,21.27
2022-12-18T19:29:08.128Z,21.26
2022-12-18T19:29:41.907Z,21.24
2022-12-18T19:31:37.447Z,21.24
2022-12-18T19:32:17.766Z,21.22
2022-12-18T19:33:05.517Z,21.22
2022-12-18T19:34:59.618Z,21.19
2022-12-18T19:36:20.177Z,21.18
2022-12-18T19:40:16.700Z,21.24
2022-12-18T19:40:56.714Z,21.25
2022-12-18T19:41:36.591Z,21.24
2022-12-18T19:42:35.621Z,21.26
2022-12-18T19:43:09.527Z,21.26
2022-12-18T19:43:43.635Z,21.25
2022-12-18T19:44:19.335Z,21.27
2022-12-18T19:44:53.396Z,21.27
2022-12-18T19:45:27.497Z,21.28
2022-12-18T19:46:01.577Z,21.28
2022-12-18T19:46:36.341Z,21.27
2022-12-18T19:47:16.002Z,21.27
2022-12-18T19:47:50.066Z,21.25
2022-12-18T19:48:24.102Z,21.25
2022-12-18T19:49:00.004Z,21.25
2022-12-18T19:49:34.962Z,21.24
2022-12-18T19:50:09.984Z,21.24
2022-12-18T19:50:44.090Z,21.24
2022-12-18T19:51:23.759Z,21.24
2022-12-18T19:51:57.837Z,21.24
2022-12-18T19:58:21.837Z,17.45
2022-12-18T19:58:57.375Z,16.50
2022-12-18T19:59:32.139Z,15.58
2022-12-18T20:00:07.432Z,14.51
2022-12-18T20:00:42.313Z,13.67
2022-12-18T20:01:17.942Z,12.83
2022-12-18T20:01:54.831Z,11.91
2022-12-18T20:02:31.766Z,11.01
2022-12-18T20:03:17.642Z,10.11
2022-12-18T20:03:58.955Z,9.14
2022-12-18T20:04:34.717Z,8.26
2022-12-18T20:05:11.775Z,7.59
2022-12-18T20:05:46.631Z,7.05
2022-12-18T20:06:31.772Z,6.34
2022-12-18T20:07:06.638Z,5.71
2022-12-18T20:07:41.778Z,5.12
2022-12-18T20:08:18.114Z,4.59
2022-12-18T20:08:54.001Z,4.23
2022-12-18T20:09:33.089Z,3.89
2022-12-18T20:10:12.291Z,3.49
2022-12-18T20:10:49.934Z,3.12
2022-12-18T20:11:24.887Z,2.83
2022-12-18T20:11:59.760Z,2.54
2022-12-18T20:12:34.834Z,2.22
2022-12-18T20:13:09.688Z,1.92
2022-12-18T20:13:45.008Z,1.59
2022-12-18T20:14:22.943Z,1.25
2022-12-18T20:15:45.488Z,0.72
2022-12-18T20:16:20.115Z,0.49
2022-12-18T20:16:55.115Z,0.29
2022-12-18T20:17:30.469Z,0.15
2022-12-18T20:18:50.934Z,-0.28
2022-12-18T20:19:27.252Z,-0.50
2022-12-18T20:20:02.027Z,-0.61
2022-12-18T20:20:36.987Z,-0.75
2022-12-18T20:21:14.057Z,-0.83
2022-12-18T20:21:49.261Z,-0.91
2022-12-18T20:22:24.133Z,-1.02
2022-12-18T20:22:59.070Z,-1.09
2022-12-18T20:23:33.955Z,-1.22
2022-12-18T20:24:12.053Z,-1.31
2022-12-18T20:24:47.009Z,-1.38
2022-12-18T20:25:24.411Z,-1.48
2022-12-18T20:25:59.299Z,-1.61
2022-12-18T20:26:34.204Z,-1.66
2022-12-18T20:27:14.046Z,-1.72
2022-12-18T20:27:50.429Z,-1.82
2022-12-18T20:28:25.728Z,-1.87
2022-12-18T20:29:00.771Z,-1.94
2022-12-18T20:29:35.637Z,-2.01
2022-12-18T20:30:11.269Z,-2.05
2022-12-18T20:30:46.157Z,-2.12
2022-12-18T20:31:21.130Z,-2.13
2022-12-18T20:31:56.060Z,-2.20
2022-12-18T20:32:36.814Z,-2.22
2022-12-18T20:33:12.046Z,-2.28
2022-12-18T20:33:48.713Z,-2.34
2022-12-18T20:34:26.020Z,-2.35
2022-12-18T20:35:00.994Z,-2.38
2022-12-18T20:35:38.954Z,-2.43
2022-12-18T20:36:15.488Z,-2.46
2022-12-18T20:36:51.269Z,-2.47
2022-12-18T20:37:26.190Z,-2.50
2022-12-18T20:38:02.160Z,-2.49
2022-12-18T20:38:39.597Z,-2.50
2022-12-18T20:39:16.830Z,-2.52
2022-12-18T20:39:53.719Z,-2.55
2022-12-18T20:40:29.024Z,-2.56
2022-12-18T20:41:51.173Z,-2.61
2022-12-18T20:42:25.605Z,-2.65
2022-12-18T20:43:00.622Z,-2.67
2022-12-18T20:43:35.543Z,-2.66
2022-12-18T20:44:22.348Z,-2.68
2022-12-18T20:44:58.248Z,-2.69
2022-12-18T20:45:33.145Z,-2.72
2022-12-18T20:46:09.715Z,-2.72
2022-12-18T20:46:44.647Z,-2.75
2022-12-18T20:47:19.519Z,-2.80
2022-12-18T20:48:14.568Z,-2.80
2022-12-18T20:48:49.484Z,-2.82
2022-12-18T20:49:25.195Z,-2.81
2022-12-18T20:50:02.552Z,-2.81
2022-12-18T20:50:37.507Z,-2.83
2022-12-18T20:51:15.291Z,-2.84
2022-12-18T20:51:54.879Z,-2.86
2022-12-18T20:52:29.779Z,-2.86
2022-12-18T20:53:05.019Z,-2.88
2022-12-18T20:53:41.801Z,-2.91
2022-12-18T20:54:17.568Z,-2.90
2022-12-18T20:54:52.473Z,-2.89
2022-12-18T20:55:27.350Z,-2.90
2022-12-18T20:56:02.959Z,-2.91
2022-12-18T20:56:37.817Z,-2.94
2022-12-18T20:57:12.695Z,-2.97
2022-12-18T20:57:47.812Z,-2.96
2022-12-18T20:58:22.721Z,-2.95
2022-12-18T20:58:58.287Z,-2.96
2022-12-18T20:59:33.225Z,-2.98
2022-12-18T21:00:08.941Z,-3.01
2022-12-18T21:00:45.103Z,-3.01
2022-12-18T21:01:23.000Z,-3.01
2022-12-18T21:01:58.277Z,-3.00
2022-12-18T21:02:33.427Z,-3.00
2022-12-18T21:03:08.628Z,-2.98
2022-12-18T21:03:44.201Z,-2.99
2022-12-18T21:04:19.743Z,-2.96
2022-12-18T21:04:55.314Z,-2.96
2022-12-18T21:05:30.183Z,-2.97
2022-12-18T21:06:05.076Z,-2.99
2022-12-18T21:06:40.174Z,-2.99
2022-12-18T21:07:15.121Z,-2.98
2022-12-18T21:07:50.047Z,-3.00
2022-12-18T21:08:24.928Z,-3.01
2022-12-18T21:08:59.849Z,-2.97
2022-12-18T21:09:37.538Z,-3.01
2022-12-18T21:10:13.394Z,-3.01
2022-12-18T21:10:48.281Z,-3.03
2022-12-18T21:11:41.572Z,-3.05
2022-12-18T21:12:44.097Z,-3.03
2022-12-18T21:13:24.197Z,-3.02
2022-12-18T21:13:59.205Z,-3.00
2022-12-18T21:14:34.142Z,-3.03
2022-12-18T21:15:10.563Z,-3.02
2022-12-18T21:15:45.447Z,-3.02
2022-12-18T21:16:20.361Z,-3.05
2022-12-18T21:16:55.278Z,-3.03
2022-12-18T21:17:30.341Z,-3.02
2022-12-18T21:18:11.419Z,-3.01
2022-12-18T21:18:46.304Z,-3.00
2022-12-18T21:19:24.369Z,-3.01
2022-12-18T21:19:59.891Z,-3.00
2022-12-18T21:20:35.114Z,-3.01
2022-12-18T21:21:10.187Z,-3.02
2022-12-18T21:21:45.177Z,-3.00
2022-12-18T21:22:20.160Z,-3.01
2022-12-18T21:22:57.326Z,-3.00
2022-12-18T21:23:37.892Z,-3.02
2022-12-18T21:24:12.881Z,-3.04
2022-12-18T21:24:47.750Z,-3.03
2022-12-18T21:25:22.619Z,-3.02
2022-12-18T21:26:08.247Z,-3.03
2022-12-18T21:26:46.177Z,-3.05
2022-12-18T21:27:21.614Z,-3.03
2022-12-18T21:27:56.651Z,-3.04
2022-12-18T21:28:31.672Z,-3.03
2022-12-18T21:29:11.533Z,-3.04
2022-12-18T21:29:47.620Z,-3.03
2022-12-18T21:30:22.709Z,-3.02
2022-12-18T21:30:58.200Z,-3.02
2022-12-18T21:31:35.487Z,-3.08
2022-12-18T21:32:10.907Z,-3.06
2022-12-18T21:32:45.823Z,-3.06
2022-12-18T21:33:20.691Z,-3.03
2022-12-18T21:33:59.751Z,-3.04
2022-12-18T21:34:37.157Z,-3.04
2022-12-18T21:35:12.036Z,-3.03
2022-12-18T21:35:46.914Z,-3.07
2022-12-18T21:36:21.792Z,-3.06
2022-12-18T21:36:57.871Z,-3.05
2022-12-18T21:37:33.377Z,-3.03
2022-12-18T21:38:10.150Z,-3.04
2022-12-18T21:38:45.022Z,-3.03
2022-12-18T21:39:20.128Z,-3.03
2022-12-18T21:39:57.407Z,-3.05
2022-12-18T21:40:32.420Z,-3.06
2022-12-18T21:41:10.630Z,-3.05
2022-12-18T21:42:04.031Z,-3.04
2022-12-18T21:42:57.772Z,-3.03
2022-12-18T21:43:50.828Z,-3.03
2022-12-18T21:44:25.749Z,-3.03
2022-12-18T21:45:00.633Z,-3.02
2022-12-18T21:45:35.504Z,-3.02
2022-12-18T21:46:10.494Z,-3.02
2022-12-18T21:47:32.228Z,-3.03
2022-12-18T21:48:06.799Z,-3.01
2022-12-18T21:48:43.920Z,-3.01
2022-12-18T21:49:19.250Z,-3.01
2022-12-18T21:49:54.162Z,-3.01
2022-12-18T21:50:29.038Z,-3.01
2022-12-18T21:51:03.924Z,-3.00
2022-12-18T21:51:41.561Z,-3.00
2022-12-18T21:52:16.418Z,-3.00
2022-12-18T21:52:51.305Z,-3.03
2022-12-18T21:53:26.188Z,-3.03
2022-12-18T21:54:01.138Z,-3.03
2022-12-18T21:54:36.095Z,-3.07
2022-12-18T21:55:11.094Z,-3.07
2022-12-18T21:55:45.984Z,-3.04
2022-12-18T21:56:20.898Z,-3.05
2022-12-18T21:56:59.200Z,-3.06
2022-12-18T21:57:34.074Z,-3.06
2022-12-18T21:58:08.936Z,-3.07
2022-12-18T21:58:56.741Z,-3.04
2022-12-18T21:59:32.382Z,-3.03
2022-12-18T22:00:08.328Z,-3.04
2022-12-18T22:00:48.340Z,-3.05
2022-12-18T22:01:23.690Z,-3.05
2022-12-18T22:02:00.371Z,-3.03
2022-12-18T22:02:35.653Z,-3.02
2022-12-18T22:03:17.658Z,-3.02
2022-12-18T22:03:53.888Z,-3.03
2022-12-18T22:04:29.032Z,-3.02
2022-12-18T22:05:04.636Z,-3.01
2022-12-18T22:05:39.991Z,-3.03
2022-12-18T22:06:15.316Z,-3.01
2022-12-18T22:06:50.722Z,-3.01
2022-12-18T22:07:25.606Z,-3.03
2022-12-18T22:08:00.495Z,-3.04
2022-12-18T22:08:35.438Z,-3.06
2022-12-18T22:10:01.971Z,-3.10
2022-12-18T22:10:36.672Z,-3.10
2022-12-18T22:11:12.452Z,-3.06
2022-12-18T22:11:47.817Z,-3.08
2022-12-18T22:12:43.751Z,-3.08
2022-12-18T22:13:19.996Z,-3.08
2022-12-18T22:13:54.919Z,-3.07
2022-12-18T22:14:29.857Z,-3.09
2022-12-18T22:15:05.854Z,-3.08
2022-12-18T22:15:40.809Z,-3.08
2022-12-18T22:16:15.809Z,-3.07
2022-12-18T22:16:50.831Z,-3.08
2022-12-18T22:17:27.490Z,-3.10
2022-12-18T22:18:03.009Z,-3.12
2022-12-18T22:18:37.888Z,-3.12
2022-12-18T22:19:12.850Z,-3.13
2022-12-18T22:19:49.898Z,-3.12
2022-12-18T22:20:24.760Z,-3.12
2022-12-18T22:21:05.033Z,-3.11
2022-12-18T22:21:41.312Z,-3.11
2022-12-18T22:22:16.180Z,-3.14
2022-12-18T22:22:52.334Z,-3.13
2022-12-18T22:23:27.224Z,-3.12
2022-12-18T22:24:13.709Z,-3.13
2022-12-18T22:24:48.635Z,-3.11
2022-12-18T22:25:23.511Z,-3.11
2022-12-18T22:25:58.375Z,-3.13
2022-12-18T22:26:39.503Z,-3.15
2022-12-18T22:27:15.172Z,-3.16
2022-12-18T22:28:12.820Z,-3.16
2022-12-18T22:29:06.140Z,-3.17
2022-12-18T22:29:59.242Z,-3.19
2022-12-18T22:30:34.117Z,-3.18
2022-12-18T22:31:09.851Z,-3.19
2022-12-18T22:31:44.822Z,-3.18
2022-12-18T22:32:30.496Z,-3.19
2022-12-18T22:33:06.060Z,-3.25
2022-12-18T22:33:40.935Z,-3.23
2022-12-18T22:34:19.390Z,-3.23
2022-12-18T22:34:59.413Z,-3.23
2022-12-18T22:35:38.252Z,-3.23
2022-12-18T22:36:13.748Z,-3.23
2022-12-18T22:36:51.885Z,-3.23
2022-12-18T22:37:26.791Z,-3.23
2022-12-18T22:38:01.843Z,-3.22
2022-12-18T22:38:36.824Z,-3.23
2022-12-18T22:39:16.627Z,-3.23
2022-12-18T22:39:51.570Z,-3.23
2022-12-18T22:40:27.548Z,-3.23
2022-12-18T22:41:02.515Z,-3.25
2022-12-18T22:41:37.390Z,-3.27
2022-12-18T22:42:12.284Z,-3.26
2022-12-18T22:42:47.213Z,-3.27
2022-12-18T22:43:25.421Z,-3.25
2022-12-18T22:44:00.337Z,-3.27
2022-12-18T22:44:35.259Z,-3.25
2022-12-18T22:45:10.530Z,-3.26
2022-12-18T22:45:47.897Z,-3.25
2022-12-18T22:46:23.120Z,-3.23
2022-12-18T22:47:05.686Z,-3.26
2022-12-18T22:47:42.041Z,-3.26
2022-12-18T22:48:17.010Z,-3.28
2022-12-18T22:48:52.057Z,-3.29
2022-12-18T22:49:27.286Z,-3.30
2022-12-18T22:50:02.170Z,-3.27
2022-12-18T22:50:37.081Z,-3.29
2022-12-18T22:51:18.535Z,-3.27
2022-12-18T22:51:54.083Z,-3.30
2022-12-18T22:52:28.980Z,-3.31
2022-12-18T22:53:03.844Z,-3.34
2022-12-18T22:53:38.730Z,-3.34
2022-12-18T22:54:14.645Z,-3.31
2022-12-18T22:54:49.541Z,-3.32
2022-12-18T22:56:11.138Z,-3.30
2022-12-18T22:56:47.741Z,-3.30
2022-12-18T22:57:23.317Z,-3.32
2022-12-18T22:57:58.226Z,-3.32
2022-12-18T22:58:33.115Z,-3.33
2022-12-18T22:59:53.202Z,-3.31
2022-12-18T23:00:27.576Z,-3.30
2022-12-18T23:01:02.330Z,-3.28
2022-12-18T23:01:37.331Z,-3.33
2022-12-18T23:02:13.977Z,-3.32
2022-12-18T23:02:52.124Z,-3.32
2022-12-18T23:03:31.507Z,-3.32
2022-12-18T23:04:06.401Z,-3.32
2022-12-18T23:04:41.268Z,-3.30
2022-12-18T23:05:16.189Z,-3.31
2022-12-18T23:05:51.077Z,-3.29
2022-12-18T23:06:28.616Z,-3.29
2022-12-18T23:07:03.504Z,-3.30
2022-12-18T23:07:38.392Z,-3.29
2022-12-18T23:08:13.723Z,-3.30
2022-12-18T23:08:52.960Z,-3.31
2022-12-18T23:09:30.705Z,-3.30
2022-12-18T23:10:05.782Z,-3.29
2022-12-18T23:10:40.683Z,-3.30
2022-12-18T23:12:00.446Z,-3.34
2022-12-18T23:12:34.846Z,-3.35
2022-12-18T23:13:12.238Z,-3.38
2022-12-18T23:13:47.277Z,-3.37
2022-12-18T23:14:22.147Z,-3.36
2022-12-18T23:14:57.038Z,-3.36
2022-12-18T23:15:31.947Z,-3.37
2022-12-18T23:16:10.811Z,-3.36
2022-12-18T23:16:45.733Z,-3.36
2022-12-18T23:17:22.409Z,-3.38
2022-12-18T23:18:00.955Z,-3.38
2022-12-18T23:18:36.469Z,-3.37
2022-12-18T23:19:11.352Z,-3.38
2022-12-18T23:19:49.271Z,-3.38
2022-12-18T23:20:24.553Z,-3.39
2022-12-18T23:20:59.481Z,-3.38
2022-12-18T23:21:34.590Z,-3.42
2022-12-18T23:22:11.970Z,-3.42
2022-12-18T23:22:46.919Z,-3.40
2022-12-18T23:23:21.821Z,-3.44
2022-12-18T23:23:56.718Z,-3.46
2022-12-18T23:24:32.775Z,-3.45
2022-12-18T23:25:07.767Z,-3.44
2022-12-18T23:25:42.649Z,-3.44
2022-12-18T23:26:20.360Z,-3.42
2022-12-18T23:26:55.286Z,-3.46
2022-12-18T23:27:30.274Z,-3.45
2022-12-18T23:28:05.258Z,-3.46
2022-12-18T23:28:40.220Z,-3.44
2022-12-18T23:29:15.098Z,-3.46
2022-12-18T23:29:49.974Z,-3.45
2022-12-18T23:30:26.958Z,-3.44
2022-12-18T23:31:18.290Z,-3.42
2022-12-18T23:31:53.250Z,-3.39
2022-12-18T23:32:28.155Z,-3.39
2022-12-18T23:33:03.040Z,-3.40
2022-12-18T23:33:38.063Z,-3.46
2022-12-18T23:34:14.162Z,-3.46
2022-12-18T23:34:49.032Z,-3.46
2022-12-18T23:35:23.925Z,-3.49
2022-12-18T23:36:04.748Z,-3.48
2022-12-18T23:36:45.637Z,-3.48
2022-12-18T23:37:49.763Z,-3.50
2022-12-18T23:38:16.509Z,-3.50
2022-12-18T23:38:55.917Z,-3.48
2022-12-18T23:39:30.864Z,-3.49
2022-12-18T23:40:50.482Z,-3.49
2022-12-18T23:41:30.880Z,-3.49
2022-12-18T23:42:05.888Z,-3.49
2022-12-18T23:42:40.765Z,-3.48
2022-12-18T23:43:15.633Z,-3.47
2022-12-18T23:43:50.809Z,-3.48
2022-12-18T23:44:25.711Z,-3.49
2022-12-18T23:45:00.596Z,-3.49
2022-12-18T23:45:39.805Z,-3.52
2022-12-18T23:46:18.859Z,-3.54
2022-12-18T23:46:54.105Z,-3.54
2022-12-18T23:47:29.034Z,-3.54
2022-12-18T23:48:03.919Z,-3.55
2022-12-18T23:48:38.800Z,-3.55
2022-12-18T23:49:13.674Z,-3.52
2022-12-18T23:49:48.547Z,-3.54
2022-12-18T23:50:29.766Z,-3.53
2022-12-18T23:51:09.100Z,-3.52
2022-12-18T23:51:43.976Z,-3.59
2022-12-18T23:52:18.849Z,-3.57
2022-12-18T23:52:53.722Z,-3.61
2022-12-18T23:53:28.608Z,-3.61
2022-12-18T23:54:04.208Z,-3.60
2022-12-18T23:54:39.980Z,-3.63
2022-12-18T23:55:14.845Z,-3.66
2022-12-18T23:55:50.103Z,-3.65
2022-12-18T23:56:27.241Z,-3.65
2022-12-18T23:57:02.265Z,-3.62
2022-12-18T23:57:37.129Z,-3.61
2022-12-18T23:58:21.791Z,-3.61
2022-12-18T23:58:56.671Z,-3.62
2022-12-18T23:59:31.604Z,-3.61
